Terminal Aerodrome Forecast
Issued by NWS

Home | Current Version | Previous Version | Text Only | Print | Product List | Glossary On
Versions: 1 2 3 4 5 6 7 8 9 10 11 12 13
000
FTUS42 TJSJ 301723
TAFNCM
TAF
TNCM 301723Z 3018/3118 07015G28KT P6SM VCTS BKN020CB BKN040
     FM311300 11015G25KT P6SM VCTS BKN020CB BKN040=

USA.gov is the U.S. government's official web portal to all federal, state and local government web resources and services.